Joao Paulo II Airport Ponta Delgada PT
ICAO: LPPD
IATA: PDL
Category: Large
Scheduled Services: Yes

Elevation: 259 ft
TransAlt. 6000 ft.

Airport Communications:
APP:119.4
TWR:118.3

LPPD Zoom In..

If you have problems with the map follow the link
https://www.worldairports.se/pages/airport.php?
ICAO=LPPD

Runways:

(A) RW 12 length 7621 ft width 148 ft
---- / hdg 121

(B) RW 30 length 7621 ft width 148 ft
ILS 109.50 / hdg 301

Location; LPPD
Day. 21 / Time. 07.30 Zulu
* QNH: 1025
* Temperature: 19° c. 66.2°f.
* Wind from: 040° Speed 15 kn.
Dewpoint: 17° c.
Visibility: 10 km or more.
Clouds: Scattered 1400 ft.

LPPD 210730Z 04015KT 010V070 9999 SCT014 19/17 Q1025


Wind From 040°
Speed 15 kn.

 
 
jpsmedia.com for Web Design worldairports.se 2018   terms of use